Time;durP1;ratioP1;P1;durP2;ratioP2;P2;SDS_P1;SDS_P2;PMS_P1;PMS_P2;Temp;Humidity;BMP_temperature;BMP_pressure;BME280_temperature;BME280_humidity;BME280_pressure;Samples;Min_cycle;Max_cycle;Signal;HPM_P1;HPM_P2
2022/09/11 00:01:40;;;;;;;9.52;7.57;;;18.70;99.90;;;;;;5047010;28;20756;-31
2022/09/11 00:04:12;;;;;;;10.32;8.35;;;18.70;99.90;;;;;;5046919;28;20200;-31
2022/09/11 00:06:39;;;;;;;10.70;8.50;;;18.70;99.90;;;;;;5058672;28;20233;-31
2022/09/11 00:09:09;;;;;;;12.35;8.05;;;18.70;99.90;;;;;;5067223;28;20218;-31
2022/09/11 00:11:41;;;;;;;12.55;8.40;;;18.70;99.90;;;;;;5077737;28;20206;-31
2022/09/11 00:14:12;;;;;;;9.52;8.48;;;18.70;99.90;;;;;;5086863;28;20207;-31
2022/09/11 00:16:43;;;;;;;13.20;9.98;;;18.70;99.90;;;;;;5086816;28;20207;-31
2022/09/11 00:19:18;;;;;;;11.82;8.27;;;18.70;99.90;;;;;;5069253;28;20216;-34
2022/09/11 00:21:49;;;;;;;9.77;8.57;;;18.70;99.90;;;;;;5053835;28;20221;-31
2022/09/11 00:24:18;;;;;;;15.07;9.60;;;18.70;99.90;;;;;;5066822;28;20585;-31
2022/09/11 00:26:47;;;;;;;11.68;9.20;;;18.70;99.90;;;;;;5066842;28;20226;-31
2022/09/11 00:29:17;;;;;;;10.38;9.13;;;18.70;99.90;;;;;;5065164;28;20200;-31
2022/09/11 00:31:48;;;;;;;10.90;8.82;;;18.70;99.90;;;;;;5066843;28;20962;-31
2022/09/11 00:34:16;;;;;;;11.35;9.60;;;18.70;99.90;;;;;;5066568;28;20296;-32
2022/09/11 00:36:47;;;;;;;12.20;9.60;;;18.70;99.90;;;;;;5049397;28;20724;-31
2022/09/11 00:39:14;;;;;;;11.73;9.35;;;18.60;99.90;;;;;;5055322;28;20211;-31
2022/09/11 00:41:45;;;;;;;11.05;9.85;;;18.60;99.90;;;;;;5046461;28;20212;-31
2022/09/11 00:44:17;;;;;;;14.20;10.85;;;18.60;99.90;;;;;;5045396;28;20200;-31
2022/09/11 00:46:52;;;;;;;11.85;9.77;;;18.60;99.90;;;;;;5046408;28;20224;-31
2022/09/11 00:49:31;;;;;;;10.87;8.70;;;18.50;99.90;;;;;;5046441;28;20200;-32
2022/09/11 00:52:21;;;;;;;11.65;9.48;;;18.50;99.90;;;;;;5046495;28;20199;-31
2022/09/11 00:55:05;;;;;;;10.70;9.57;;;18.50;99.90;;;;;;5046705;28;20290;-31
2022/09/11 00:57:48;;;;;;;12.23;9.75;;;18.40;99.90;;;;;;5046120;28;20214;-34
2022/09/11 01:00:15;;;;;;;10.95;9.75;;;18.40;99.90;;;;;;5062855;28;20699;-33
2022/09/11 01:02:46;;;;;;;11.57;9.52;;;18.40;99.90;;;;;;5048090;28;20521;-31
2022/09/11 01:05:17;;;;;;;12.13;9.90;;;18.40;99.90;;;;;;5047381;28;20219;-31
2022/09/11 01:07:48;;;;;;;10.60;9.00;;;18.30;99.90;;;;;;5046263;28;20228;-31
2022/09/11 01:10:24;;;;;;;12.07;9.57;;;18.30;99.90;;;;;;5052089;28;20194;-31
2022/09/11 01:13:01;;;;;;;13.23;9.80;;;18.30;99.90;;;;;;5047040;28;20196;-31
2022/09/11 01:16:12;;;;;;;11.40;9.27;;;18.30;99.90;;;;;;5046893;28;20197;-31
2022/09/11 01:18:46;;;;;;;11.00;9.83;;;18.20;99.90;;;;;;5051568;28;20594;-31
2022/09/11 01:21:24;;;;;;;15.00;9.55;;;18.20;99.90;;;;;;5046918;28;21198;-31
2022/09/11 01:23:59;;;;;;;11.13;9.55;;;18.10;99.90;;;;;;5047826;28;20608;-31
2022/09/11 01:26:51;;;;;;;12.60;10.13;;;18.10;99.90;;;;;;5050595;28;20234;-31
2022/09/11 01:29:30;;;;;;;11.07;9.73;;;18.10;99.90;;;;;;5052736;28;20673;-31
2022/09/11 01:32:17;;;;;;;14.23;10.57;;;18.10;99.90;;;;;;5067738;28;20195;-31
2022/09/11 01:34:58;;;;;;;12.80;10.23;;;18.10;99.90;;;;;;5068312;28;20208;-31
2022/09/11 01:37:58;;;;;;;10.93;9.40;;;18.10;99.90;;;;;;5069830;28;20207;-31
2022/09/11 01:40:44;;;;;;;13.07;10.07;;;18.00;99.90;;;;;;5068651;28;20210;-31
2022/09/11 01:43:20;;;;;;;11.40;9.50;;;18.00;99.90;;;;;;5048156;28;20204;-31
2022/09/11 01:45:50;;;;;;;12.45;10.07;;;18.00;99.90;;;;;;5049160;28;20713;-31
2022/09/11 01:48:28;;;;;;;12.30;9.77;;;18.00;99.90;;;;;;5066932;28;20241;-31
2022/09/11 01:50:59;;;;;;;12.57;10.23;;;18.00;99.90;;;;;;5069421;28;20211;-31
2022/09/11 01:53:36;;;;;;;12.23;10.00;;;17.90;99.90;;;;;;5051900;28;20195;-31
2022/09/11 01:56:09;;;;;;;14.27;9.93;;;17.90;99.90;;;;;;5067902;28;20223;-31
2022/09/11 01:58:39;;;;;;;13.40;10.38;;;17.90;99.90;;;;;;5069439;28;20239;-31
2022/09/11 02:01:20;;;;;;;13.52;10.55;;;17.90;99.90;;;;;;5066547;28;20668;-31
2022/09/11 02:04:09;;;;;;;11.93;10.10;;;17.80;99.90;;;;;;5066446;28;20207;-31
2022/09/11 02:06:47;;;;;;;16.43;10.67;;;17.80;99.90;;;;;;5069070;28;20223;-31
2022/09/11 02:09:20;;;;;;;16.83;10.55;;;17.80;99.90;;;;;;5064145;28;20205;-32
2022/09/11 02:11:54;;;;;;;14.80;11.48;;;17.80;99.90;;;;;;5061941;28;20211;-32
2022/09/11 02:14:38;;;;;;;12.23;9.95;;;17.80;99.90;;;;;;5069495;28;20207;-32
2022/09/11 02:17:30;;;;;;;15.82;11.07;;;17.70;99.90;;;;;;5068545;28;20226;-33
2022/09/11 02:20:02;;;;;;;12.23;10.70;;;17.70;99.90;;;;;;5067291;28;20239;-32
2022/09/11 02:22:32;;;;;;;13.20;10.00;;;17.70;99.90;;;;;;5048956;28;20204;-32
2022/09/11 02:25:02;;;;;;;13.38;10.30;;;17.60;99.90;;;;;;5048882;28;20200;-32
2022/09/11 02:27:35;;;;;;;13.35;10.25;;;17.60;99.90;;;;;;5049079;28;20231;-32
2022/09/11 02:30:06;;;;;;;15.55;10.88;;;17.70;99.90;;;;;;5048463;28;20204;-32
2022/09/11 02:32:37;;;;;;;13.38;10.73;;;17.60;99.90;;;;;;5047967;28;20204;-32
2022/09/11 02:35:10;;;;;;;12.60;10.70;;;17.60;99.90;;;;;;5047929;28;20219;-31
2022/09/11 02:38:02;;;;;;;12.18;10.25;;;17.60;99.90;;;;;;5053503;28;20221;-31
2022/09/11 02:40:48;;;;;;;13.65;10.63;;;17.60;99.90;;;;;;5066415;28;20206;-31
2022/09/11 02:43:33;;;;;;;13.02;11.27;;;17.60;99.90;;;;;;5068526;28;20234;-31
2022/09/11 02:46:25;;;;;;;17.37;11.47;;;17.60;99.90;;;;;;5068086;28;20214;-32
2022/09/11 02:49:17;;;;;;;16.30;11.73;;;17.60;99.90;;;;;;5067573;28;20215;-31
2022/09/11 02:51:59;;;;;;;14.13;11.50;;;17.60;99.90;;;;;;5067648;28;20218;-32
2022/09/11 02:54:53;;;;;;;16.75;12.25;;;17.60;99.90;;;;;;5063672;28;20211;-31
2022/09/11 02:57:29;;;;;;;14.87;11.67;;;17.60;99.90;;;;;;5047808;28;20647;-31
2022/09/11 03:00:04;;;;;;;15.65;11.40;;;17.60;99.90;;;;;;5048098;28;20228;-31
2022/09/11 03:02:37;;;;;;;15.15;12.23;;;17.60;99.90;;;;;;5047265;28;20211;-31
2022/09/11 03:05:06;;;;;;;13.77;11.65;;;17.60;99.90;;;;;;5048175;28;20605;-31
2022/09/11 03:07:33;;;;;;;12.73;11.33;;;17.60;99.90;;;;;;5047686;28;20726;-31
2022/09/11 03:10:03;;;;;;;12.53;10.70;;;17.60;99.90;;;;;;5047393;28;20682;-31
2022/09/11 03:12:30;;;;;;;13.13;11.37;;;17.60;99.90;;;;;;5051760;28;20585;-32
2022/09/11 03:14:58;;;;;;;13.17;11.17;;;17.60;99.90;;;;;;5047888;28;20208;-31
2022/09/11 03:17:27;;;;;;;12.65;10.95;;;17.60;99.90;;;;;;5047170;28;20584;-32
2022/09/11 03:19:59;;;;;;;13.17;10.37;;;17.60;99.90;;;;;;5052368;28;20250;-31
2022/09/11 03:22:33;;;;;;;12.75;10.63;;;17.60;99.90;;;;;;5052643;28;20204;-31
2022/09/11 03:25:05;;;;;;;11.32;10.13;;;17.60;99.90;;;;;;5047717;28;20219;-31
2022/09/11 03:27:37;;;;;;;11.75;10.52;;;17.60;99.90;;;;;;5066286;28;20229;-31
2022/09/11 03:30:06;;;;;;;11.25;10.00;;;17.60;99.90;;;;;;5049318;28;20204;-31
2022/09/11 03:32:33;;;;;;;13.05;11.02;;;17.60;99.90;;;;;;5046382;28;20719;-31
2022/09/11 03:35:01;;;;;;;13.77;10.63;;;17.60;99.90;;;;;;5064519;28;20217;-31
2022/09/11 03:37:28;;;;;;;13.10;10.77;;;17.50;99.90;;;;;;5072791;28;20199;-31
2022/09/11 03:39:55;;;;;;;11.52;10.15;;;17.50;99.90;;;;;;5077580;28;20223;-32
2022/09/11 03:42:22;;;;;;;12.17;10.87;;;17.50;99.90;;;;;;5073429;28;20762;-31
2022/09/11 03:44:50;;;;;;;11.87;10.67;;;17.50;99.90;;;;;;5069107;28;20203;-32
2022/09/11 03:47:19;;;;;;;12.10;10.80;;;17.50;99.90;;;;;;5068837;28;20203;-31
2022/09/11 03:49:48;;;;;;;15.15;10.15;;;17.50;99.90;;;;;;5064704;28;20210;-31
2022/09/11 03:52:18;;;;;;;14.03;10.33;;;17.50;99.90;;;;;;5070956;28;20215;-31
2022/09/11 03:54:52;;;;;;;11.30;9.90;;;17.50;99.90;;;;;;5075969;28;20698;-32
2022/09/11 03:57:20;;;;;;;14.53;11.03;;;17.50;99.90;;;;;;5079141;28;20196;-32
2022/09/11 03:59:47;;;;;;;11.27;10.17;;;17.50;99.90;;;;;;5077335;28;20248;-32
2022/09/11 04:02:14;;;;;;;10.67;9.57;;;17.50;99.90;;;;;;5049213;28;20220;-32
2022/09/11 04:04:44;;;;;;;11.83;10.63;;;17.50;99.90;;;;;;5067386;28;20253;-32
2022/09/11 04:07:14;;;;;;;14.00;10.93;;;17.50;99.90;;;;;;5065563;28;20200;-32
2022/09/11 04:09:45;;;;;;;12.13;10.83;;;17.50;99.90;;;;;;5075940;28;20243;-32
2022/09/11 04:12:18;;;;;;;12.10;10.37;;;17.50;99.90;;;;;;5056058;28;20738;-31
2022/09/11 04:14:49;;;;;;;11.80;10.53;;;17.50;99.90;;;;;;5047160;28;20203;-33
2022/09/11 04:17:16;;;;;;;12.77;10.57;;;17.40;99.90;;;;;;5046751;28;20204;-31
2022/09/11 04:19:47;;;;;;;14.00;11.07;;;17.40;99.90;;;;;;5051889;28;20223;-32
2022/09/11 04:22:14;;;;;;;11.82;10.60;;;17.40;99.90;;;;;;5066960;28;20204;-31
2022/09/11 04:24:41;;;;;;;13.03;10.90;;;17.40;99.90;;;;;;5066546;28;20206;-32
2022/09/11 04:27:08;;;;;;;11.97;10.67;;;17.40;99.90;;;;;;5074427;28;20648;-31
2022/09/11 04:29:40;;;;;;;12.57;10.90;;;17.40;99.90;;;;;;5057963;28;20219;-31
2022/09/11 04:32:10;;;;;;;12.90;11.30;;;17.40;99.90;;;;;;5046331;28;20215;-32
2022/09/11 04:34:40;;;;;;;12.63;10.70;;;17.50;99.90;;;;;;5058416;28;20227;-31
2022/09/11 04:37:10;;;;;;;11.97;10.20;;;17.40;99.90;;;;;;5056189;28;20220;-31
2022/09/11 04:39:40;;;;;;;12.50;11.17;;;17.40;99.90;;;;;;5047162;28;20203;-31
2022/09/11 04:42:09;;;;;;;12.57;10.90;;;17.40;99.90;;;;;;5047040;28;20212;-31
2022/09/11 04:44:38;;;;;;;11.43;10.23;;;17.40;99.90;;;;;;5066746;28;20567;-32
2022/09/11 04:47:08;;;;;;;10.90;9.77;;;17.40;99.90;;;;;;5065737;28;20690;-31
2022/09/11 04:49:39;;;;;;;11.93;9.88;;;17.40;99.90;;;;;;5066215;28;20227;-31
2022/09/11 04:52:09;;;;;;;12.27;10.97;;;17.40;99.90;;;;;;5049610;28;20210;-31
2022/09/11 04:54:38;;;;;;;13.60;10.83;;;17.40;99.90;;;;;;5060901;28;20251;-31
2022/09/11 04:57:06;;;;;;;12.60;11.03;;;17.30;99.90;;;;;;5066643;28;20214;-31
2022/09/11 04:59:33;;;;;;;12.27;10.50;;;17.30;99.90;;;;;;5063966;28;20232;-31
2022/09/11 05:02:00;;;;;;;12.87;11.50;;;17.30;99.90;;;;;;5074737;28;20211;-31
2022/09/11 05:04:27;;;;;;;12.47;11.17;;;17.30;99.90;;;;;;5066703;28;20272;-31
2022/09/11 05:06:57;;;;;;;13.50;11.40;;;17.30;99.90;;;;;;5052201;28;20216;-32
2022/09/11 05:09:26;;;;;;;12.73;10.60;;;17.30;99.90;;;;;;5050981;28;20232;-32
2022/09/11 05:11:58;;;;;;;12.83;11.47;;;17.30;99.90;;;;;;5054138;28;20228;-31
2022/09/11 05:14:27;;;;;;;13.50;11.50;;;17.30;99.90;;;;;;5053033;28;20196;-31
2022/09/11 05:16:56;;;;;;;13.43;11.30;;;17.30;99.90;;;;;;5058617;28;20204;-31
2022/09/11 05:19:24;;;;;;;13.27;11.57;;;17.30;99.90;;;;;;5054221;28;20211;-32
2022/09/11 05:21:54;;;;;;;12.47;11.27;;;17.30;99.90;;;;;;5049110;28;20245;-31
2022/09/11 05:24:21;;;;;;;11.67;10.47;;;17.30;99.90;;;;;;5051161;28;20216;-32
2022/09/11 05:26:51;;;;;;;13.57;11.53;;;17.30;99.90;;;;;;5051604;28;20282;-31
2022/09/11 05:29:27;;;;;;;11.97;10.77;;;17.30;99.90;;;;;;5068386;28;20223;-31
2022/09/11 05:31:58;;;;;;;12.17;10.87;;;17.30;99.90;;;;;;5067780;28;20566;-32
2022/09/11 05:34:28;;;;;;;12.37;11.07;;;17.20;99.90;;;;;;5067028;28;20196;-32
2022/09/11 05:36:56;;;;;;;13.00;11.30;;;17.20;99.90;;;;;;5060674;28;20200;-32
2022/09/11 05:39:26;;;;;;;12.50;10.67;;;17.20;99.90;;;;;;5050114;28;20224;-32
2022/09/11 05:41:54;;;;;;;13.30;11.53;;;17.30;99.90;;;;;;5047865;28;20212;-31
2022/09/11 05:44:21;;;;;;;14.37;12.07;;;17.20;99.90;;;;;;5050254;28;20728;-31
2022/09/11 05:46:51;;;;;;;12.03;10.83;;;17.20;99.90;;;;;;5049504;28;20342;-31
2022/09/11 05:49:20;;;;;;;15.17;11.83;;;17.20;99.90;;;;;;5047996;28;20246;-31
2022/09/11 05:51:50;;;;;;;13.30;11.80;;;17.20;99.90;;;;;;5048493;28;20196;-31
2022/09/11 05:54:20;;;;;;;14.07;11.87;;;17.10;99.90;;;;;;5059138;28;20545;-32
2022/09/11 05:56:47;;;;;;;15.37;11.93;;;17.10;99.90;;;;;;5064632;28;20299;-31
2022/09/11 05:59:17;;;;;;;18.30;12.00;;;17.00;99.90;;;;;;5062193;28;20240;-32
2022/09/11 06:01:49;;;;;;;13.87;12.47;;;17.00;99.90;;;;;;5069136;28;20217;-32
2022/09/11 06:04:17;;;;;;;12.00;10.80;;;16.90;99.90;;;;;;5063190;28;20321;-32
2022/09/11 06:06:47;;;;;;;12.43;11.10;;;16.90;99.90;;;;;;5069497;28;20211;-32
2022/09/11 06:09:14;;;;;;;14.63;11.20;;;16.90;99.90;;;;;;5055120;28;20232;-32
2022/09/11 06:11:41;;;;;;;12.60;11.30;;;16.80;99.90;;;;;;5050331;28;20243;-32
2022/09/11 06:14:08;;;;;;;12.73;10.53;;;16.80;99.90;;;;;;5048199;28;20231;-32
2022/09/11 06:16:39;;;;;;;18.80;10.17;;;16.80;99.90;;;;;;5049436;28;20734;-32
2022/09/11 06:19:11;;;;;;;10.43;9.50;;;16.80;99.90;;;;;;5058781;28;20214;-33
2022/09/11 06:21:39;;;;;;;10.57;9.57;;;16.80;99.90;;;;;;5061701;28;20204;-33
2022/09/11 06:24:07;;;;;;;9.87;8.87;;;16.70;99.90;;;;;;5053542;28;20220;-32
2022/09/11 06:26:45;;;;;;;10.23;9.33;;;16.70;99.90;;;;;;5065917;28;20223;-32
2022/09/11 06:29:15;;;;;;;11.03;8.63;;;16.70;99.90;;;;;;5069763;28;20227;-33
2022/09/11 06:31:42;;;;;;;10.60;9.50;;;16.70;99.90;;;;;;5065939;28;20674;-34
2022/09/11 06:34:12;;;;;;;10.23;9.23;;;16.70;99.90;;;;;;5054354;28;20201;-33
2022/09/11 06:36:39;;;;;;;10.63;9.53;;;16.70;99.90;;;;;;5064128;28;20195;-33
2022/09/11 06:39:07;;;;;;;10.37;9.37;;;16.70;99.90;;;;;;5067374;28;20199;-33
2022/09/11 06:41:38;;;;;;;10.80;9.80;;;16.70;99.90;;;;;;5051535;28;20216;-33
2022/09/11 06:44:08;;;;;;;10.60;9.60;;;16.70;99.90;;;;;;5063600;28;20374;-33
2022/09/11 06:46:39;;;;;;;11.30;10.20;;;16.70;99.90;;;;;;5056852;28;20212;-33
2022/09/11 06:49:09;;;;;;;11.03;10.03;;;16.70;99.90;;;;;;5065252;28;20220;-33
2022/09/11 06:51:38;;;;;;;10.53;9.53;;;16.80;99.90;;;;;;5050708;28;20288;-33
2022/09/11 06:54:08;;;;;;;11.53;10.43;;;16.80;99.90;;;;;;5052115;28;20200;-33
2022/09/11 06:56:37;;;;;;;11.67;10.47;;;16.80;99.90;;;;;;5061723;28;20215;-33
2022/09/11 06:59:05;;;;;;;12.83;10.80;;;16.80;99.90;;;;;;5048876;28;20339;-33
2022/09/11 07:01:34;;;;;;;12.33;10.60;;;16.90;99.90;;;;;;5075003;28;20213;-33
2022/09/11 07:04:04;;;;;;;11.77;10.57;;;16.90;99.90;;;;;;5072022;28;20642;-33
2022/09/11 07:06:37;;;;;;;12.27;11.07;;;16.90;99.90;;;;;;5052759;28;20686;-33
2022/09/11 07:09:10;;;;;;;12.17;10.97;;;17.00;99.90;;;;;;5048428;28;20231;-34
2022/09/11 07:11:39;;;;;;;12.77;11.47;;;17.00;99.90;;;;;;5064035;28;20716;-33
2022/09/11 07:14:08;;;;;;;11.30;10.20;;;17.00;99.90;;;;;;5052190;28;20878;-33
2022/09/11 07:16:36;;;;;;;12.17;10.83;;;17.10;99.90;;;;;;5058421;28;20224;-33
2022/09/11 07:19:04;;;;;;;13.80;12.37;;;17.10;99.90;;;;;;5049751;28;20243;-34
2022/09/11 07:21:34;;;;;;;13.07;11.67;;;17.10;99.90;;;;;;5047790;28;20207;-33
2022/09/11 07:24:02;;;;;;;13.90;11.97;;;17.20;99.90;;;;;;5048531;28;20212;-33
2022/09/11 07:26:30;;;;;;;13.20;11.80;;;17.20;99.90;;;;;;5054413;28;21157;-33
2022/09/11 07:29:01;;;;;;;15.40;13.00;;;17.30;99.90;;;;;;5066163;28;20225;-34
2022/09/11 07:31:33;;;;;;;14.60;13.07;;;17.30;99.90;;;;;;5061914;28;20208;-33
2022/09/11 07:34:01;;;;;;;15.03;13.53;;;17.40;99.90;;;;;;5048845;28;20666;-33
2022/09/11 07:36:36;;;;;;;13.70;12.03;;;17.40;99.90;;;;;;5046970;28;20679;-34
2022/09/11 07:39:06;;;;;;;16.07;13.40;;;17.50;99.90;;;;;;5047234;28;20204;-33
2022/09/11 07:41:36;;;;;;;15.03;13.43;;;17.60;99.90;;;;;;5056462;28;20214;-34
2022/09/11 07:44:04;;;;;;;14.53;13.00;;;17.60;99.90;;;;;;5057405;28;20227;-33
2022/09/11 07:46:35;;;;;;;16.73;14.07;;;17.70;99.90;;;;;;5047078;28;20582;-33
2022/09/11 07:49:02;;;;;;;18.13;14.97;;;17.70;99.90;;;;;;5065472;28;20250;-33
2022/09/11 07:51:33;;;;;;;16.70;14.33;;;17.80;99.90;;;;;;5051082;28;20211;-33
2022/09/11 07:54:00;;;;;;;17.50;14.90;;;17.90;99.90;;;;;;5058312;28;20207;-33
2022/09/11 07:56:27;;;;;;;16.37;14.67;;;17.90;99.90;;;;;;5050818;28;20224;-33
2022/09/11 07:58:55;;;;;;;20.37;16.27;;;17.90;99.90;;;;;;5046052;28;20984;-34
2022/09/11 08:01:25;;;;;;;19.27;16.33;;;18.00;99.90;;;;;;5060302;28;20203;-34
2022/09/11 08:03:57;;;;;;;21.47;17.10;;;18.10;99.90;;;;;;5046401;28;20212;-33
2022/09/11 08:06:26;;;;;;;18.90;16.23;;;18.10;99.90;;;;;;5046725;28;20249;-33
2022/09/11 08:08:55;;;;;;;19.47;16.13;;;18.20;99.90;;;;;;5046500;28;20220;-34
2022/09/11 08:11:23;;;;;;;19.43;16.80;;;18.20;99.90;;;;;;5046841;28;20196;-34
2022/09/11 08:13:54;;;;;;;22.27;16.87;;;18.30;99.90;;;;;;5046097;28;20207;-33
2022/09/11 08:16:24;;;;;;;20.33;17.53;;;18.30;99.90;;;;;;5046414;28;20290;-33
2022/09/11 08:18:54;;;;;;;20.00;17.90;;;18.40;99.90;;;;;;5046239;28;20600;-34
2022/09/11 08:21:25;;;;;;;21.53;17.33;;;18.40;99.90;;;;;;5047615;28;20219;-34
2022/09/11 08:23:54;;;;;;;23.50;18.47;;;18.50;99.90;;;;;;5062310;28;20294;-34
2022/09/11 08:26:24;;;;;;;19.50;16.42;;;18.50;99.90;;;;;;5058632;28;20306;-34
2022/09/11 08:28:58;;;;;;;22.03;17.73;;;18.50;99.90;;;;;;5049077;28;20285;-34
2022/09/11 08:31:27;;;;;;;22.17;18.07;;;18.60;99.90;;;;;;5049905;28;20196;-34
2022/09/11 08:33:58;;;;;;;19.17;16.97;;;18.60;99.90;;;;;;5062164;28;20549;-34
2022/09/11 08:36:25;;;;;;;21.80;18.53;;;18.70;99.90;;;;;;5058527;28;20211;-34
2022/09/11 08:38:58;;;;;;;22.10;18.10;;;18.80;99.90;;;;;;5063959;28;20626;-34
2022/09/11 08:41:25;;;;;;;22.43;18.90;;;18.90;99.90;;;;;;5052671;28;20290;-34
2022/09/11 08:44:16;;;;;;;22.33;18.70;;;18.90;99.90;;;;;;5053588;28;20196;-34
2022/09/11 08:47:14;;;;;;;22.53;18.60;;;19.00;99.90;;;;;;5048782;28;20220;-34
2022/09/11 08:49:48;;;;;;;22.97;17.97;;;19.00;99.90;;;;;;5062204;28;20305;-34
2022/09/11 08:52:17;;;;;;;22.13;17.70;;;19.10;99.90;;;;;;5053975;28;20702;-34
2022/09/11 08:54:48;;;;;;;23.03;18.63;;;19.20;99.90;;;;;;5054185;28;20295;-34
2022/09/11 08:57:18;;;;;;;21.90;18.27;;;19.20;99.90;;;;;;5050231;28;20298;-34
2022/09/11 09:00:01;;;;;;;21.30;17.83;;;19.30;99.90;;;;;;5051677;28;20714;-34
2022/09/11 09:02:50;;;;;;;21.13;17.27;;;19.40;99.90;;;;;;5060586;28;20201;-34
2022/09/11 09:05:52;;;;;;;21.27;17.33;;;19.50;99.90;;;;;;5050775;28;20216;-35
2022/09/11 09:08:24;;;;;;;22.57;18.10;;;19.60;99.90;;;;;;5052774;28;20215;-34
2022/09/11 09:11:05;;;;;;;22.48;18.40;;;19.60;99.90;;;;;;5066749;28;20721;-34
2022/09/11 09:13:54;;;;;;;22.53;18.83;;;19.70;99.90;;;;;;5051805;28;20310;-34
2022/09/11 09:16:34;;;;;;;22.83;18.40;;;19.70;99.90;;;;;;5053321;28;20253;-34
2022/09/11 09:19:08;;;;;;;22.10;18.50;;;19.80;99.90;;;;;;5046790;28;20250;-34
2022/09/11 09:22:05;;;;;;;21.00;17.48;;;19.90;99.90;;;;;;5059037;28;20235;-34
2022/09/11 09:24:47;;;;;;;20.92;17.55;;;20.00;99.90;;;;;;5068682;28;20296;-34
2022/09/11 09:27:39;;;;;;;22.95;18.58;;;20.10;99.90;;;;;;5068228;28;20226;-34
2022/09/11 09:30:20;;;;;;;24.83;19.30;;;20.20;99.90;;;;;;5068507;28;20231;-34
2022/09/11 09:32:58;;;;;;;22.70;19.45;;;20.20;99.90;;;;;;5059649;28;20576;-34
2022/09/11 09:35:39;;;;;;;22.63;18.17;;;20.30;99.90;;;;;;5057429;28;20294;-34
2022/09/11 09:38:21;;;;;;;21.15;17.20;;;20.30;99.90;;;;;;5069770;28;20211;-33
2022/09/11 09:41:30;;;;;;;22.05;16.92;;;20.40;99.90;;;;;;5049374;28;20261;-34
2022/09/11 09:44:09;;;;;;;21.13;18.20;;;20.40;99.90;;;;;;5061443;28;20207;-34
2022/09/11 09:46:47;;;;;;;21.55;18.60;;;20.50;99.90;;;;;;5048279;28;20642;-34
2022/09/11 09:49:31;;;;;;;22.60;18.70;;;20.50;99.90;;;;;;5049033;28;20227;-34
2022/09/11 09:52:16;;;;;;;20.73;16.60;;;20.60;99.90;;;;;;5049858;28;20188;-34
2022/09/11 09:54:58;;;;;;;19.77;17.05;;;20.60;99.90;;;;;;5050611;28;20244;-34
2022/09/11 09:57:31;;;;;;;20.02;16.45;;;20.70;99.90;;;;;;5059380;28;20741;-34
2022/09/11 10:00:10;;;;;;;20.00;16.60;;;20.80;99.90;;;;;;5053059;28;20434;-34
2022/09/11 10:02:47;;;;;;;19.60;16.10;;;20.80;99.90;;;;;;5079294;28;20572;-34
2022/09/11 10:05:38;;;;;;;17.83;14.52;;;20.90;99.90;;;;;;5060342;28;20638;-34
2022/09/11 10:08:24;;;;;;;16.33;14.50;;;20.90;99.90;;;;;;5056340;28;20694;-34
2022/09/11 10:11:10;;;;;;;17.23;13.73;;;21.00;99.90;;;;;;5050045;28;20224;-33
2022/09/11 10:13:42;;;;;;;17.63;14.60;;;21.10;99.90;;;;;;5049570;28;20223;-34
2022/09/11 10:16:26;;;;;;;21.13;15.70;;;21.10;99.90;;;;;;5050566;28;20219;-34
2022/09/11 10:18:56;;;;;;;18.20;15.02;;;21.20;99.90;;;;;;5066985;28;20206;-34
2022/09/11 10:21:35;;;;;;;17.30;14.52;;;21.20;99.90;;;;;;5065678;28;20216;-34
2022/09/11 10:24:28;;;;;;;18.13;14.70;;;21.20;99.90;;;;;;5047571;28;20724;-35
2022/09/11 10:26:56;;;;;;;18.23;15.68;;;21.20;99.90;;;;;;5065087;28;20200;-34
2022/09/11 10:29:29;;;;;;;16.52;14.20;;;21.20;99.90;;;;;;5050957;28;20234;-34
2022/09/11 10:32:02;;;;;;;16.83;13.88;;;21.20;99.90;;;;;;5064991;28;20199;-34
2022/09/11 10:34:39;;;;;;;15.07;13.48;;;21.20;99.90;;;;;;5052767;28;20200;-34
2022/09/11 10:37:28;;;;;;;16.70;13.60;;;21.30;99.90;;;;;;5047509;28;20219;-34
2022/09/11 10:40:07;;;;;;;17.20;14.35;;;21.30;99.90;;;;;;5055604;28;20203;-34
2022/09/11 10:42:36;;;;;;;13.45;12.15;;;21.40;99.90;;;;;;5064737;28;20298;-34
2022/09/11 10:45:15;;;;;;;14.40;12.90;;;21.40;99.90;;;;;;5056890;28;20195;-34
2022/09/11 10:47:45;;;;;;;15.15;12.35;;;21.50;99.90;;;;;;5066870;28;20207;-34
2022/09/11 10:50:19;;;;;;;11.93;10.73;;;21.60;99.90;;;;;;5051618;28;20710;-34
2022/09/11 10:52:56;;;;;;;15.48;13.07;;;21.70;99.90;;;;;;5057314;28;20207;-34
2022/09/11 10:55:36;;;;;;;12.77;11.48;;;21.70;99.90;;;;;;5047526;28;20227;-34
2022/09/11 10:58:16;;;;;;;15.88;13.20;;;21.80;99.90;;;;;;5047838;28;20262;-34
2022/09/11 11:00:46;;;;;;;12.85;11.32;;;21.80;99.90;;;;;;5063974;28;20234;-34
2022/09/11 11:03:23;;;;;;;12.80;11.25;;;21.90;99.90;;;;;;5062526;28;20227;-34
2022/09/11 11:06:18;;;;;;;13.15;11.85;;;21.90;99.90;;;;;;5054672;28;20220;-34
2022/09/11 11:09:12;;;;;;;13.15;11.80;;;21.90;99.90;;;;;;5060698;28;20204;-34
2022/09/11 11:12:09;;;;;;;10.30;9.30;;;22.00;99.90;;;;;;5066052;28;20219;-34
2022/09/11 11:14:51;;;;;;;10.55;9.55;;;22.00;99.90;;;;;;5058295;28;20738;-35
2022/09/11 11:18:01;;;;;;;10.77;9.65;;;22.10;99.90;;;;;;5046892;28;20200;-34
2022/09/11 11:20:54;;;;;;;12.07;10.75;;;22.20;99.90;;;;;;5045897;28;20210;-33
2022/09/11 11:23:44;;;;;;;10.77;9.27;;;22.20;99.90;;;;;;5053278;28;20218;-34
2022/09/11 11:26:26;;;;;;;8.27;7.47;;;22.20;99.90;;;;;;5067002;28;20269;-34
2022/09/11 11:29:03;;;;;;;9.48;8.57;;;22.30;99.90;;;;;;5067681;28;20199;-34
2022/09/11 11:32:14;;;;;;;10.15;8.98;;;22.40;99.90;;;;;;5065343;28;20237;-34
2022/09/11 11:35:00;;;;;;;9.30;8.40;;;22.40;99.90;;;;;;5066617;28;20685;-34
2022/09/11 11:37:38;;;;;;;10.57;9.48;;;22.50;99.90;;;;;;5063656;28;20386;-34
2022/09/11 11:40:15;;;;;;;10.15;8.65;;;22.40;99.90;;;;;;5052011;28;20722;-34
2022/09/11 11:42:59;;;;;;;11.52;10.52;;;22.50;99.90;;;;;;5053384;28;20652;-34
2022/09/11 11:45:36;;;;;;;11.60;9.52;;;22.40;99.90;;;;;;5067116;28;20294;-34
2022/09/11 11:48:13;;;;;;;8.75;7.95;;;22.40;99.90;;;;;;5051109;28;20734;-34
2022/09/11 11:50:50;;;;;;;13.52;8.10;;;22.30;99.90;;;;;;5046047;28;20228;-34
2022/09/11 11:53:24;;;;;;;8.77;7.88;;;22.30;99.90;;;;;;5062968;28;20191;-34
2022/09/11 11:56:00;;;;;;;7.05;6.35;;;22.30;99.90;;;;;;5062172;28;20322;-34
2022/09/11 11:58:56;;;;;;;6.05;5.43;;;22.20;99.90;;;;;;5051298;28;20231;-34
2022/09/11 12:01:40;;;;;;;7.30;5.13;;;22.20;99.90;;;;;;5064697;28;20206;-34
2022/09/11 12:04:33;;;;;;;6.20;5.60;;;22.20;99.90;;;;;;5060856;28;20207;-34
2022/09/11 12:07:02;;;;;;;5.53;5.13;;;22.30;99.90;;;;;;5074938;28;21160;-34
2022/09/11 12:09:31;;;;;;;6.10;5.50;;;22.30;99.90;;;;;;5057213;28;20202;-34
2022/09/11 12:12:05;;;;;;;5.88;5.30;;;22.40;99.90;;;;;;5067362;28;20569;-34
2022/09/11 12:14:33;;;;;;;6.07;5.55;;;22.50;99.90;;;;;;5065033;28;20241;-35
2022/09/11 12:17:32;;;;;;;5.53;5.00;;;22.50;99.90;;;;;;5060730;28;20591;-34
2022/09/11 12:20:10;;;;;;;4.80;4.40;;;22.50;99.90;;;;;;5064673;28;20235;-34
2022/09/11 12:22:50;;;;;;;7.60;4.90;;;22.60;99.90;;;;;;5072140;28;20203;-34
2022/09/11 12:25:17;;;;;;;5.22;4.78;;;22.60;99.90;;;;;;5053780;28;20206;-34
2022/09/11 12:27:47;;;;;;;6.57;4.85;;;22.60;99.90;;;;;;5061041;28;20569;-34
2022/09/11 12:30:17;;;;;;;5.53;4.68;;;22.60;99.90;;;;;;5072498;28;20208;-34
2022/09/11 12:32:59;;;;;;;5.45;4.90;;;22.50;99.90;;;;;;5055730;28;20224;-34
2022/09/11 12:35:39;;;;;;;5.20;4.65;;;22.50;99.90;;;;;;5048410;28;20200;-34
2022/09/11 12:38:07;;;;;;;4.30;3.95;;;22.50;99.90;;;;;;5054704;28;20215;-34
2022/09/11 12:40:48;;;;;;;6.10;4.03;;;22.50;99.90;;;;;;5062874;28;20306;-34
2022/09/11 12:43:34;;;;;;;5.10;3.88;;;22.50;99.90;;;;;;5046799;28;21034;-34
2022/09/11 12:46:23;;;;;;;5.18;4.38;;;22.40;99.90;;;;;;5046333;28;20579;-34
2022/09/11 12:49:09;;;;;;;5.25;3.60;;;22.40;99.90;;;;;;5050169;28;20623;-34
2022/09/11 12:52:00;;;;;;;4.40;3.08;;;22.40;99.90;;;;;;5041004;28;20704;-34
2022/09/11 12:54:41;;;;;;;3.80;2.92;;;22.30;99.90;;;;;;5057155;28;20202;-35
2022/09/11 12:57:20;;;;;;;2.85;2.65;;;22.30;99.90;;;;;;5065459;28;20208;-34
2022/09/11 12:59:53;;;;;;;4.63;2.80;;;22.30;99.90;;;;;;5053703;28;20262;-35
2022/09/11 13:02:57;;;;;;;4.80;2.90;;;22.20;99.90;;;;;;5046650;28;20505;-36
2022/09/11 13:05:36;;;;;;;3.70;2.90;;;22.20;99.90;;;;;;5056139;28;20642;-35
2022/09/11 13:08:23;;;;;;;6.25;3.10;;;22.30;99.90;;;;;;5053736;28;20226;-35
2022/09/11 13:10:50;;;;;;;3.65;2.58;;;22.30;99.90;;;;;;5066178;28;20728;-35